YM Unicorn — BLHI — position and weather

sailwx.info

Track history (hours):
 
Tides and Currents Weather Stations Pressure Air Temp Water Temp Dewpoint Dewpoint Depression Visibility Wind Speed Wind Dir Waves Ship Positions

YM Unicorn

Last reported at 2017-Dec-08 16:11 UTC. Time now 2017-Dec-14 17:13 UTC.
Position N 09°11' W 079°51'.

Length 333 m; draft 10.6 m.

Type: Ship (hazmat cat A). MMSI: 416464000.

Date/timePositionNaut miles runAvg speedWind from/ knotsBaromVisibWave heightAir tempDewpointWater temp
2017-Dec-08 16:11N 09°11' W 079°51'1 8.0
2017-Dec-08 16:00N 09°11' W 079°53'3 6.8
2017-Dec-08 15:30N 09°13' W 079°56'0 0.2
2017-Dec-08 14:59N 09°13' W 079°56'0 0.1
2017-Dec-08 14:29N 09°13' W 079°56'0 0.1
2017-Dec-08 12:11N 09°13' W 079°56'0 1.6
2017-Dec-08 12:00N 09°13' W 079°56'2 3.5
2017-Dec-08 11:30N 09°15' W 079°55'1 2.7
2017-Dec-08 11:00N 09°16' W 079°55'0 0.2
2017-Dec-08 10:31N 09°16' W 079°55'0 0.5
2017-Dec-08 10:01N 09°16' W 079°55'0 0.5
2017-Dec-08 09:31N 09°17' W 079°55'0 0.3
2017-Dec-08 09:01N 09°17' W 079°55'0 0.7
2017-Dec-08 08:30N 09°17' W 079°55'1 1.8
2017-Dec-08 08:01N 09°18' W 079°55'3 5.0
2017-Dec-08 07:30N 09°20' W 079°55'3 5.5
2017-Dec-08 07:00N 09°23' W 079°55'3 5.2
2017-Dec-08 06:31N 09°26' W 079°55'2 2.9
2017-Dec-08 05:59N 09°27' W 079°56'0 0.2
2017-Dec-08 05:29N 09°27' W 079°56'0 0.1
2017-Dec-08 04:59N 09°27' W 079°56'0 0.1
2017-Dec-08 04:29N 09°27' W 079°56'0 0.0
2017-Dec-08 03:59N 09°27' W 079°56'0 0.0
2017-Dec-08 03:29N 09°27' W 079°56'0 0.0
2017-Dec-08 02:59N 09°27' W 079°56'0 0.0
2017-Dec-08 02:29N 09°27' W 079°56'0 0.1
2017-Dec-08 01:59N 09°27' W 079°56'1 2.8
2017-Dec-08 01:30N 09°28' W 079°55'713.5
2017-Dec-08 01:01N 09°34' W 079°53'1117.0
2017-Dec-08 00:23N 09°44' W 079°50'  
2017-Dec-04 10:25N 32°08' W 081°08'0 0.0
2017-Dec-04 09:43N 32°08' W 081°08'0 0.0
2017-Dec-04 09:25N 32°08' W 081°08'0 0.0
2017-Dec-04 08:55N 32°08' W 081°08'0 0.0
2017-Dec-04 08:25N 32°08' W 081°08'0 0.0
2017-Dec-04 07:31N 32°08' W 081°08'0 0.0
2017-Dec-04 07:25N 32°08' W 081°08'0 0.0
2017-Dec-04 06:55N 32°08' W 081°08'0 0.0
2017-Dec-04 06:25N 32°08' W 081°08'0 0.0
2017-Dec-04 05:55N 32°08' W 081°08'0 0.0
2017-Dec-04 05:25N 32°08' W 081°08'0 0.0
2017-Dec-04 04:55N 32°08' W 081°08'0 0.0
2017-Dec-04 04:19N 32°08' W 081°08'0 0.0
2017-Dec-04 03:49N 32°08' W 081°08'0 0.0
2017-Dec-04 03:25N 32°08' W 081°08'0 0.0
2017-Dec-04 02:49N 32°08' W 081°08'0 0.0
2017-Dec-04 02:25N 32°08' W 081°08'0 0.0
2017-Dec-04 01:43N 32°08' W 081°08'0 0.0
2017-Dec-04 01:25N 32°08' W 081°08'0 0.0
2017-Dec-04 00:55N 32°08' W 081°08'0 0.0
2017-Dec-04 00:25N 32°08' W 081°08'0 0.0
2017-Dec-03 23:55N 32°08' W 081°08'0 0.0
2017-Dec-03 23:25N 32°08' W 081°08'0 0.0
2017-Dec-03 22:55N 32°08' W 081°08'0 0.0
2017-Dec-03 22:25N 32°08' W 081°08'0 0.0
2017-Dec-03 21:55N 32°08' W 081°08'0 0.0
2017-Dec-03 21:25N 32°08' W 081°08'0 0.0
2017-Dec-03 20:55N 32°08' W 081°08'0 1.1
2017-Dec-03 20:30N 32°08' W 081°08'2 3.0
2017-Dec-03 20:00N 32°07' W 081°07'3 5.1
2017-Dec-03 19:30N 32°05' W 081°05'2 3.9
2017-Dec-03 19:00N 32°05' W 081°03'3 6.3
2017-Dec-03 18:30N 32°05' W 080°59'5 9.6
2017-Dec-03 18:00N 32°02' W 080°55'4 8.7
2017-Dec-03 17:30N 32°02' W 080°49'612.7
2017-Dec-03 17:00N 31°58' W 080°44'3 6.1
2017-Dec-03 16:30N 31°57' W 080°40'5 9.6
2017-Dec-03 16:00N 31°57' W 080°35'3 4.6
2017-Dec-03 15:27N 31°58' W 080°32'0 0.1
2017-Dec-03 14:57N 31°58' W 080°32'0 0.0
2017-Dec-03 14:27N 31°58' W 080°32'0 0.0
2017-Dec-03 13:57N 31°58' W 080°32'0 0.0
2017-Dec-03 13:09N 31°58' W 080°32'0 0.1
2017-Dec-03 12:45N 31°58' W 080°32'0 0.0
2017-Dec-03 12:21N 31°58' W 080°32'0 0.2
2017-Dec-03 11:51N 31°58' W 080°32'0 0.2
2017-Dec-03 11:27N 31°58' W 080°32'0 0.2
2017-Dec-03 10:57N 31°58' W 080°32'0 0.0
2017-Dec-03 10:27N 31°58' W 080°32'0 0.0
2017-Dec-03 09:57N 31°58' W 080°32'0 0.1
2017-Dec-03 09:21N 31°58' W 080°32'0 0.1
2017-Dec-03 08:57N 31°58' W 080°32'0 0.0
2017-Dec-03 08:27N 31°58' W 080°32'0 0.0
2017-Dec-03 07:57N 31°58' W 080°32'0 0.0
2017-Dec-03 07:27N 31°58' W 080°32'0 0.1
2017-Dec-03 06:57N 31°58' W 080°32'0 0.0
2017-Dec-03 06:27N 31°58' W 080°32'0 0.0
2017-Dec-03 05:51N 31°58' W 080°32'0 0.5
2017-Dec-03 05:27N 31°58' W 080°32'1 1.9
2017-Dec-03 05:00N 31°58' W 080°31'4 7.4
2017-Dec-03 04:30N 31°57' W 080°27'7 9.0
2017-Dec-03 03:42N 31°57' W 080°18'8 9.0
2017-Dec-03 02:49N 31°59' W 080°09'11 9.0
2017-Dec-03 01:33N 32°01' W 079°56'1 9.2
2017-Dec-03 01:28N 32°01' W 079°55'163 9.3
2017-Dec-02 07:51N 34°11' W 077°57'0 0.0
2017-Dec-01 13:35N 34°12' W 077°57'0 2.5
2017-Dec-01 13:30N 34°12' W 077°57'1 1.4
2017-Dec-01 13:01N 34°12' W 077°57'61212.8
2017-Nov-29 13:15N 42°16' W 070°02'519.5
2017-Nov-29 13:00N 42°17' W 070°08'1019.8
2017-Nov-29 12:30N 42°18' W 070°21'1019.6
2017-Nov-29 12:01N 42°19' W 070°34'918.5
2017-Nov-29 11:30N 42°22' W 070°46'612.4
2017-Nov-29 11:00N 42°22' W 070°55'4 8.9
2017-Nov-29 10:30N 42°20' W 070°60'1 2.3
2017-Nov-29 10:00N 42°21' W 071°01'0 0.0
2017-Nov-29 09:29N 42°21' W 071°01'0 0.0
2017-Nov-29 08:59N 42°21' W 071°01'0 0.0
2017-Nov-29 08:29N 42°21' W 071°01'0 0.0
2017-Nov-29 07:56N 42°21' W 071°01'0 0.0
2017-Nov-29 07:29N 42°21' W 071°01'0 0.0
2017-Nov-29 06:59N 42°21' W 071°01'0 0.0
2017-Nov-29 06:26N 42°21' W 071°01'0 0.0
2017-Nov-29 05:44N 42°21' W 071°01'0 0.0
2017-Nov-29 05:29N 42°21' W 071°01'0 0.0
2017-Nov-29 04:56N 42°21' W 071°01'0 0.0
2017-Nov-29 04:26N 42°21' W 071°01'0 0.0
2017-Nov-29 03:59N 42°21' W 071°01'0 0.0
2017-Nov-29 03:29N 42°21' W 071°01'0 0.0
2017-Nov-29 02:56N 42°21' W 071°01'0 0.0
2017-Nov-29 02:23N 42°21' W 071°01'0 0.0
2017-Nov-29 01:53N 42°21' W 071°01'0 0.0
2017-Nov-29 01:29N 42°21' W 071°01'0 0.0
2017-Nov-29 00:50N 42°21' W 071°01'0 0.0
2017-Nov-29 00:29N 42°21' W 071°01'0 0.0
2017-Nov-28 23:59N 42°21' W 071°01'0 0.0
2017-Nov-28 23:29N 42°21' W 071°01'0 0.0
2017-Nov-28 22:59N 42°21' W 071°01'0 0.0
2017-Nov-28 22:26N 42°21' W 071°01'0 0.0
2017-Nov-28 21:56N 42°21' W 071°01'0 0.0
2017-Nov-28 21:26N 42°21' W 071°01'0 0.0
2017-Nov-28 20:50N 42°21' W 071°01'0 0.0
2017-Nov-28 20:26N 42°21' W 071°01'0 0.0
2017-Nov-28 19:23N 42°21' W 071°01'0 0.0
2017-Nov-28 18:59N 42°21' W 071°01'0 0.0
2017-Nov-28 18:29N 42°21' W 071°01'0 0.0
2017-Nov-28 17:59N 42°21' W 071°01'0 0.0
2017-Nov-28 17:29N 42°21' W 071°01'0 0.0
2017-Nov-28 16:59N 42°21' W 071°01'0 0.0
2017-Nov-28 16:29N 42°21' W 071°01'  
Track history (hours):
 
Tides and Currents Weather Stations Pressure Air Temp Water Temp Dewpoint Dewpoint Depression Visibility Wind Speed Wind Dir Waves Ship Positions

YM Unicorn

Last reported at 2017-Dec-08 16:11 UTC. Time now 2017-Dec-14 17:13 UTC.
Position N 09°11' W 079°51'.

Length 333 m; draft 10.6 m.

Type: Ship (hazmat cat A). MMSI: 416464000.

Date/timePositionNaut miles runAvg speedWind from/ knotsBaromVisibWave heightAir tempDewpointWater temp
2017-Dec-08 16:11N 09°11' W 079°51'1 8.0
2017-Dec-08 16:00N 09°11' W 079°53'3 6.8
2017-Dec-08 15:30N 09°13' W 079°56'0 0.2
2017-Dec-08 14:59N 09°13' W 079°56'0 0.1
2017-Dec-08 14:29N 09°13' W 079°56'0 0.1
2017-Dec-08 12:11N 09°13' W 079°56'0 1.6
2017-Dec-08 12:00N 09°13' W 079°56'2 3.5
2017-Dec-08 11:30N 09°15' W 079°55'1 2.7
2017-Dec-08 11:00N 09°16' W 079°55'0 0.2
2017-Dec-08 10:31N 09°16' W 079°55'0 0.5
2017-Dec-08 10:01N 09°16' W 079°55'0 0.5
2017-Dec-08 09:31N 09°17' W 079°55'0 0.3
2017-Dec-08 09:01N 09°17' W 079°55'0 0.7
2017-Dec-08 08:30N 09°17' W 079°55'1 1.8
2017-Dec-08 08:01N 09°18' W 079°55'3 5.0
2017-Dec-08 07:30N 09°20' W 079°55'3 5.5
2017-Dec-08 07:00N 09°23' W 079°55'3 5.2
2017-Dec-08 06:31N 09°26' W 079°55'2 2.9
2017-Dec-08 05:59N 09°27' W 079°56'0 0.2
2017-Dec-08 05:29N 09°27' W 079°56'0 0.1
2017-Dec-08 04:59N 09°27' W 079°56'0 0.1
2017-Dec-08 04:29N 09°27' W 079°56'0 0.0
2017-Dec-08 03:59N 09°27' W 079°56'0 0.0
2017-Dec-08 03:29N 09°27' W 079°56'0 0.0
2017-Dec-08 02:59N 09°27' W 079°56'0 0.0
2017-Dec-08 02:29N 09°27' W 079°56'0 0.1
2017-Dec-08 01:59N 09°27' W 079°56'1 2.8
2017-Dec-08 01:30N 09°28' W 079°55'713.5
2017-Dec-08 01:01N 09°34' W 079°53'1117.0
2017-Dec-08 00:23N 09°44' W 079°50'  
2017-Dec-04 10:25N 32°08' W 081°08'0 0.0
2017-Dec-04 09:43N 32°08' W 081°08'0 0.0
2017-Dec-04 09:25N 32°08' W 081°08'0 0.0
2017-Dec-04 08:55N 32°08' W 081°08'0 0.0
2017-Dec-04 08:25N 32°08' W 081°08'0 0.0
2017-Dec-04 07:31N 32°08' W 081°08'0 0.0
2017-Dec-04 07:25N 32°08' W 081°08'0 0.0
2017-Dec-04 06:55N 32°08' W 081°08'0 0.0
2017-Dec-04 06:25N 32°08' W 081°08'0 0.0
2017-Dec-04 05:55N 32°08' W 081°08'0 0.0
2017-Dec-04 05:25N 32°08' W 081°08'0 0.0
2017-Dec-04 04:55N 32°08' W 081°08'0 0.0
2017-Dec-04 04:19N 32°08' W 081°08'0 0.0
2017-Dec-04 03:49N 32°08' W 081°08'0 0.0
2017-Dec-04 03:25N 32°08' W 081°08'0 0.0
2017-Dec-04 02:49N 32°08' W 081°08'0 0.0
2017-Dec-04 02:25N 32°08' W 081°08'0 0.0
2017-Dec-04 01:43N 32°08' W 081°08'0 0.0
2017-Dec-04 01:25N 32°08' W 081°08'0 0.0
2017-Dec-04 00:55N 32°08' W 081°08'0 0.0
2017-Dec-04 00:25N 32°08' W 081°08'0 0.0
2017-Dec-03 23:55N 32°08' W 081°08'0 0.0
2017-Dec-03 23:25N 32°08' W 081°08'0 0.0
2017-Dec-03 22:55N 32°08' W 081°08'0 0.0
2017-Dec-03 22:25N 32°08' W 081°08'0 0.0
2017-Dec-03 21:55N 32°08' W 081°08'0 0.0
2017-Dec-03 21:25N 32°08' W 081°08'0 0.0
2017-Dec-03 20:55N 32°08' W 081°08'0 1.1
2017-Dec-03 20:30N 32°08' W 081°08'2 3.0
2017-Dec-03 20:00N 32°07' W 081°07'3 5.1
2017-Dec-03 19:30N 32°05' W 081°05'2 3.9
2017-Dec-03 19:00N 32°05' W 081°03'3 6.3
2017-Dec-03 18:30N 32°05' W 080°59'5 9.6
2017-Dec-03 18:00N 32°02' W 080°55'4 8.7
2017-Dec-03 17:30N 32°02' W 080°49'612.7
2017-Dec-03 17:00N 31°58' W 080°44'3 6.1
2017-Dec-03 16:30N 31°57' W 080°40'5 9.6
2017-Dec-03 16:00N 31°57' W 080°35'3 4.6
2017-Dec-03 15:27N 31°58' W 080°32'0 0.1
2017-Dec-03 14:57N 31°58' W 080°32'0 0.0
2017-Dec-03 14:27N 31°58' W 080°32'0 0.0
2017-Dec-03 13:57N 31°58' W 080°32'0 0.0
2017-Dec-03 13:09N 31°58' W 080°32'0 0.1
2017-Dec-03 12:45N 31°58' W 080°32'0 0.0
2017-Dec-03 12:21N 31°58' W 080°32'0 0.2
2017-Dec-03 11:51N 31°58' W 080°32'0 0.2
2017-Dec-03 11:27N 31°58' W 080°32'0 0.2
2017-Dec-03 10:57N 31°58' W 080°32'0 0.0
2017-Dec-03 10:27N 31°58' W 080°32'0 0.0
2017-Dec-03 09:57N 31°58' W 080°32'0 0.1
2017-Dec-03 09:21N 31°58' W 080°32'0 0.1
2017-Dec-03 08:57N 31°58' W 080°32'0 0.0
2017-Dec-03 08:27N 31°58' W 080°32'0 0.0
2017-Dec-03 07:57N 31°58' W 080°32'0 0.0
2017-Dec-03 07:27N 31°58' W 080°32'0 0.1
2017-Dec-03 06:57N 31°58' W 080°32'0 0.0
2017-Dec-03 06:27N 31°58' W 080°32'0 0.0
2017-Dec-03 05:51N 31°58' W 080°32'0 0.5
2017-Dec-03 05:27N 31°58' W 080°32'1 1.9
2017-Dec-03 05:00N 31°58' W 080°31'4 7.4
2017-Dec-03 04:30N 31°57' W 080°27'7 9.0
2017-Dec-03 03:42N 31°57' W 080°18'8 9.0
2017-Dec-03 02:49N 31°59' W 080°09'11 9.0
2017-Dec-03 01:33N 32°01' W 079°56'1 9.2
2017-Dec-03 01:28N 32°01' W 079°55'163 9.3
2017-Dec-02 07:51N 34°11' W 077°57'0 0.0
2017-Dec-01 13:35N 34°12' W 077°57'0 2.5
2017-Dec-01 13:30N 34°12' W 077°57'1 1.4
2017-Dec-01 13:01N 34°12' W 077°57'61212.8
2017-Nov-29 13:15N 42°16' W 070°02'519.5
2017-Nov-29 13:00N 42°17' W 070°08'1019.8
2017-Nov-29 12:30N 42°18' W 070°21'1019.6
2017-Nov-29 12:01N 42°19' W 070°34'918.5
2017-Nov-29 11:30N 42°22' W 070°46'612.4
2017-Nov-29 11:00N 42°22' W 070°55'4 8.9
2017-Nov-29 10:30N 42°20' W 070°60'1 2.3
2017-Nov-29 10:00N 42°21' W 071°01'0 0.0
2017-Nov-29 09:29N 42°21' W 071°01'0 0.0
2017-Nov-29 08:59N 42°21' W 071°01'0 0.0
2017-Nov-29 08:29N 42°21' W 071°01'0 0.0
2017-Nov-29 07:56N 42°21' W 071°01'0 0.0
2017-Nov-29 07:29N 42°21' W 071°01'0 0.0
2017-Nov-29 06:59N 42°21' W 071°01'0 0.0
2017-Nov-29 06:26N 42°21' W 071°01'0 0.0
2017-Nov-29 05:44N 42°21' W 071°01'0 0.0
2017-Nov-29 05:29N 42°21' W 071°01'0 0.0
2017-Nov-29 04:56N 42°21' W 071°01'0 0.0
2017-Nov-29 04:26N 42°21' W 071°01'0 0.0
2017-Nov-29 03:59N 42°21' W 071°01'0 0.0
2017-Nov-29 03:29N 42°21' W 071°01'0 0.0
2017-Nov-29 02:56N 42°21' W 071°01'0 0.0
2017-Nov-29 02:23N 42°21' W 071°01'0 0.0
2017-Nov-29 01:53N 42°21' W 071°01'0 0.0
2017-Nov-29 01:29N 42°21' W 071°01'0 0.0
2017-Nov-29 00:50N 42°21' W 071°01'0 0.0
2017-Nov-29 00:29N 42°21' W 071°01'0 0.0
2017-Nov-28 23:59N 42°21' W 071°01'0 0.0
2017-Nov-28 23:29N 42°21' W 071°01'0 0.0
2017-Nov-28 22:59N 42°21' W 071°01'0 0.0
2017-Nov-28 22:26N 42°21' W 071°01'0 0.0
2017-Nov-28 21:56N 42°21' W 071°01'0 0.0
2017-Nov-28 21:26N 42°21' W 071°01'0 0.0
2017-Nov-28 20:50N 42°21' W 071°01'0 0.0
2017-Nov-28 20:26N 42°21' W 071°01'0 0.0
2017-Nov-28 19:23N 42°21' W 071°01'0 0.0
2017-Nov-28 18:59N 42°21' W 071°01'0 0.0
2017-Nov-28 18:29N 42°21' W 071°01'0 0.0
2017-Nov-28 17:59N 42°21' W 071°01'0 0.0
2017-Nov-28 17:29N 42°21' W 071°01'0 0.0
2017-Nov-28 16:59N 42°21' W 071°01'0 0.0
2017-Nov-28 16:29N 42°21' W 071°01'  

Dump ship's entire track history